메인 페이지
METAR-TAF:

METAR-TAF

공항 :

Monroe, 루이지애나, 미국

위도: 32-30-42N, 경도: 092-01-53W, 고도: 24m

현재 날씨관측

예보는 42분 전, 11:53시(UTC)에 발표되었습니다.
무풍
온도 24°C
습도 94%
기압 1015 hPa
시정: 8.0km
맑음
박무

METAR: KMLU 231153Z 00000KT 5SM BR CLR 24/23 A2998 RMK AO2 SLP150 70032 T02390228 10261 20233 53007

시각: 07:35 (12:35 UTC)

예보

예보는 53분 전, 11:42시(UTC)에 발표되었습니다.
예보 대상 시간: 23일 12시부터 24일 12시까지 (UTC)
kt
시정: 10km
맑음
23일 1500시부터 (UTC)
4kt
시정: 10km
고도 3500ft 상공 구름 보통
23일 1800시부터 (UTC)
남동9kt
시정: 10km
고도 5000ft 상공 구름 많음, 적란운.
시계 내 뇌우
24일 0000시부터 (UTC)
남동3kt
시정: 10km
고도 25000ft 상공 구름 보통
24일 0900시부터 (UTC)
kt
시정: 10km
고도 5000ft 상공 흐림

TAF: KMLU 231142Z 2312/2412 00000KT P6SM SKC FM231500 17004KT P6SM SCT035 FM231800 14009KT P6SM VCTS BKN050CB FM240000 13003KT P6SM SCT250 FM240900 00000KT P6SM OVC050

4,000개 이상의 공항 관측 자료 및 예보 (METAR 및 TAF 보고).

지도상에서 검색 가능한 기상관측소가 노란 점과 빨간 점으로 표시되어 있습니다.

기상관측소 명을 보려면 표시 위로 마우스를 이동하세요.

날씨 관측과 예보를 보려면 클릭하세요.

지도 변경 : 확대하려면 엑스 표시가 있는 녹색 버튼, 축소하려면 빼기 표시가 있는 녹색 버튼, 다음 페이지의 지도를 보려면 녹색 화살표를 클릭하세요.


METAR-TAF: